Anchor, Illinois
Current Conditions -  °F | °C
As of 12:04 PM on Monday 22 Dec 2014 (Local Time) from KBMI Reporting Station
Light Rain Light Rain  
Wind Chill: 29°   Ceiling: 200
Heat Index: 37°   Visibility: 1.2mi
Dew Point: 37°   Wind: 15mph
Humidity: 100%   Direction: 140°SE
Pressure: 29.71"   Gusts: NA
Location:  40.57°N, 88.54°W
Report Text: KBMI 221804Z 14013KT 1 1/4SM -RA BR OVC002 03/03 A2971 RMK AO2 P0002
Loading
Personal Weather Stations






























Interactive Weather Map New forecast layout! Learn more

10-Day Weather Forecast

Advertisements
Track Severe Weather on mobile